Latest Coastal Weather Observations for Townsville

IDQ60701

Issued at 6:51 pm EST Saturday 25 April 2015 (issued every 10 minutes, with the page automatically refreshed every 10 minutes)

About coastal observations | Map of coastal stations | Coastal observations for QLD | Marine services | Other Formats
Station Details ID: 032040 Name: TOWNSVILLE AERO Lat: -19.25 Lon: 146.77 Height: 4.34 m
Data from the previous 72 hours. | See also: Recent months at Townsville
Date/Time
EST
Temp

°C
Wind Pressure Rain
since 9am
mm
Weather Cloud Vis
km
Sea
Height
m
Swell
Dir
 
Speed
knots
Gust
knots
hPa Trend Height
m
Period
s
Dir
25/06:30pm 25.4 N 5 6 1011.2 - 0.0 - - 10 - - - -
25/06:00pm 25.8 N 7 8 1010.8 R 0.0 Smoke Mostly cloudy 50 - - - -
25/05:30pm 26.6 NNW 8 12 1010.5 - 0.0 - - 10 - - - -
25/05:00pm 27.3 N 9 13 1010.2 - 0.0 - Mostly clear 10 - - - -
25/04:30pm 28.1 N 10 13 1009.7 - 0.0 - Mostly clear 10 - - - -
25/04:00pm 28.0 N 10 14 1009.3 - 0.0 - Mostly clear 10 - - - -
25/03:30pm 28.2 N 10 13 1009.0 - 0.0 - - 10 - - - -
25/03:00pm 29.3 N 8 12 1008.8 R 0.0 Fine Mostly cloudy 60 - - - -
25/02:30pm 29.6 NNE 8 14 1008.9 - 0.0 - - 10 - - - -
25/02:00pm 30.3 ENE 9 11 1009.1 - 0.0 - - 10 - - - -
25/01:30pm 30.0 NNE 11 15 1009.3 - 0.0 - Mostly clear 10 - - - -
25/01:00pm 29.8 NNE 12 16 1009.7 - 0.0 - Mostly clear 10 - - - -
25/12:30pm 29.9 ENE 7 10 1010.3 - 0.0 - Mostly clear 10 - - - -
25/12:00pm 29.5 ENE 9 13 1010.4 F 0.0 Fine Mostly clear 60 - - - -
25/11:30am 29.6 E 8 13 1011.1 - 0.0 - Mostly clear 10 - - - -
25/10:00am 27.3 WNW 5 7 1012.4 - 0.0 - Mostly clear 10 - - - -
25/08:00am 21.4 CALM 0 0 1012.2 - 0.0 - - 10 - - - -
25/07:30am 19.5 CALM 0 0 1011.9 - 0.0 - - 10 - - - -
25/07:00am 17.8 CALM 0 0 1011.5 - 0.0 - - 10 - - - -
25/06:30am 17.1 CALM 0 0 1011.3 - 0.0 Shallow fog - 10 - - - -
25/06:00am 16.8 SSE 2 4 1011.0 - 0.0 Shallow fog - 10 - - - -
25/05:30am 17.6 S 2 5 1010.6 - 0.0 - - 10 - - - -
25/05:00am 17.7 CALM 0 0 1010.4 - 0.0 - - 10 - - - -
25/04:30am 17.7 CALM 0 0 1010.3 - 0.0 - - 10 - - - -
25/04:00am 18.3 CALM 0 0 1010.1 - 0.0 - - 10 - - - -
25/03:30am 17.9 CALM 0 0 1010.1 - 0.0 - - 10 - - - -
25/03:00am 17.4 CALM 0 0 1010.1 - 0.0 - - 10 - - - -
25/02:30am 17.8 CALM 0 0 1010.2 - 0.0 - - 10 - - - -
25/02:01am 18.4 CALM 0 0 1010.2 - 0.0 - - 10 - - - -
25/02:00am 18.6 CALM 0 0 1010.2 - 0.0 - - 10 - - - -
25/01:42am 18.4 CALM 0 - 1010.3 - 0.0 - - 4 - - - -
25/01:30am 17.8 CALM 0 0 1010.3 - 0.0 - - 10 - - - -
25/01:00am 18.0 CALM 0 0 1010.5 - 0.0 - - 10 - - - -
25/12:30am 19.2 CALM 0 0 1010.8 - 0.0 - - 10 - - - -
25/12:00am 21.6 S 5 5 1010.8 - 0.0 - - 10 - - - -
 
Date/Time
EST
Temp

°C
Wind Pressure Rain
since 9am
mm
Weather Cloud Vis
km
Sea
Height
m
Swell
Dir
 
Speed
knots
Gust
knots
hPa Trend Height
m
Period
s
Dir
24/11:30pm 21.2 S 4 4 1010.9 - 0.0 - - 10 - - - -
24/11:00pm 21.0 CALM 0 0 1011.2 - 0.0 - - 10 - - - -
24/10:30pm 21.2 SW 2 3 1011.1 - 0.0 - - 10 - - - -
24/10:00pm 21.3 WSW 5 6 1011.1 - 0.0 - - 10 - - - -
24/09:30pm 21.1 CALM 0 5 1011.0 - 0.0 - - 10 - - - -
24/09:00pm 21.5 CALM 0 0 1010.8 R 0.0 Fine Clear 50 - - - -
24/08:30pm 21.8 N 4 4 1010.6 - 0.0 - - 10 - - - -
24/08:00pm 21.5 N 4 4 1010.4 - 0.0 - - 10 - - - -
24/07:30pm 22.2 NNW 4 4 1010.0 - 0.0 - - 10 - - - -
24/07:00pm 22.2 NW 5 6 1009.7 - 0.0 - - 10 - - - -
24/06:30pm 23.3 NNW 6 6 1009.5 - 0.0 - - 10 - - - -
24/06:00pm 24.5 NNW 5 6 1008.9 F 0.0 Smoke Clear 50 - - - -
24/05:30pm 26.0 N 8 10 1008.7 - 0.0 - - 10 - - - -
24/05:00pm 26.7 N 8 10 1008.7 - 0.0 - - 10 - - - -
24/04:30pm 27.0 N 8 11 1008.6 - 0.0 - - 10 - - - -
24/04:00pm 27.3 N 9 12 1008.4 - 0.0 - - 10 - - - -
24/03:30pm 27.4 N 11 15 1008.4 - 0.0 - - 10 - - - -
24/03:00pm 27.8 N 11 14 1008.4 F 0.0 Fine Mostly clear 50 - - - -
24/02:30pm 28.3 N 11 15 1008.7 - 0.0 - Mostly clear 10 - - - -
24/02:00pm 27.8 N 10 13 1008.7 - 0.0 - Mostly clear 10 - - - -
24/01:30pm 28.3 N 10 15 1009.0 - 0.0 - Mostly clear 10 - - - -
24/01:00pm 28.6 NNW 9 15 1009.6 - 0.0 - Mostly clear 10 - - - -
24/12:30pm 28.4 N 9 14 1010.1 - 0.0 - Mostly clear 10 - - - -
24/12:00pm 27.5 N 10 14 1010.6 F 0.0 Fine Mostly clear 50 - - - -
24/11:30am 27.8 NNE 8 16 1011.1 - 0.0 - Mostly clear 10 - - - -
24/11:00am 27.6 NNE 9 12 1011.7 - 0.0 - Mostly clear 10 - - - -
24/10:30am 27.2 NW 5 9 1012.0 - 0.0 - Mostly clear 10 - - - -
24/10:00am 26.7 S 3 7 1012.1 - 0.0 - Mostly clear 10 - - - -
24/09:30am 26.2 SSW 3 6 1012.2 - 0.0 - Mostly clear 10 - - - -
24/09:00am 25.1 S 4 5 1012.0 F 0.0 Smoke Mostly clear 50 - - - -
24/08:30am 23.6 CALM 0 0 1012.1 - 0.0 - Mostly clear 10 - - - -
24/08:00am 21.1 CALM 0 0 1012.1 - 0.0 - Mostly clear 10 - - - -
24/07:30am 18.7 CALM 0 0 1011.8 - 0.0 - Mostly clear 10 - - - -
24/07:00am 15.9 CALM 0 0 1011.6 - 0.0 - Mostly clear 10 - - - -
24/06:30am 15.1 CALM 0 0 1011.2 - 0.0 - Mostly clear 10 - - - -
24/06:00am 15.5 CALM 0 0 1010.8 F 0.0 Fine Partly cloudy 50 - - - -
24/05:30am 15.3 S 4 5 1010.9 - 0.0 - - 10 - - - -
24/05:00am 15.8 CALM 0 0 1010.7 - 0.0 - - 10 - - - -
24/04:30am 16.0 CALM 0 0 1010.7 - 0.0 - - 10 - - - -
24/04:00am 15.6 CALM 0 0 1010.7 - 0.0 - - 10 - - - -
24/03:30am 16.7 CALM 0 0 1010.7 - 0.0 - - 10 - - - -
24/03:00am 16.3 S 1 3 1010.7 - 0.0 - - 10 - - - -
24/02:30am 16.4 CALM 0 0 1010.8 - 0.0 - - 10 - - - -
24/02:00am 16.9 CALM 0 0 1010.8 - 0.0 - - 10 - - - -
24/01:30am 16.8 CALM 0 0 1010.9 - 0.0 - - 10 - - - -
24/01:00am 17.3 CALM 0 0 1011.0 - 0.0 - - 10 - - - -
24/12:30am 17.0 CALM 0 0 1011.3 - 0.0 - - 10 - - - -
24/12:00am 17.4 CALM 0 0 1011.2 - 0.0 - - 10 - - - -
 
Date/Time
EST
Temp

°C
Wind Pressure Rain
since 9am
mm
Weather Cloud Vis
km
Sea
Height
m
Swell
Dir
 
Speed
knots
Gust
knots
hPa Trend Height
m
Period
s
Dir
23/11:30pm 17.6 CALM 0 0 1011.5 - 0.0 - - 10 - - - -
23/11:00pm 17.7 CALM 0 0 1011.6 - 0.0 - - 10 - - - -
23/10:30pm 18.9 S 4 5 1011.6 - 0.0 - - 10 - - - -
23/10:00pm 20.3 SSE 5 6 1011.6 - 0.0 - - 10 - - - -
23/09:30pm 21.0 S 3 6 1011.7 - 0.0 - - 10 - - - -
23/09:00pm 20.2 CALM 0 0 1011.5 - 0.0 - - 10 - - - -
23/08:30pm 20.5 CALM 0 0 1011.4 - 0.0 - - 10 - - - -
23/08:00pm 21.0 CALM 0 0 1011.2 - 0.0 - - 10 - - - -
23/07:30pm 21.7 CALM 0 0 1010.9 - 0.0 - - 10 - - - -
23/07:00pm 22.0 N 3 4 1010.5 - 0.0 - - 10 - - - -
23/06:30pm 23.4 N 4 5 1010.0 - 0.0 - - 10 - - - -
23/06:00pm 24.5 N 5 7 1009.6 R 0.0 Fine Partly cloudy 60 - - - -
23/05:30pm 25.8 N 6 8 1009.5 - 0.0 - - 10 - - - -
23/05:00pm 26.0 N 8 10 1009.2 - 0.0 - - 10 - - - -
23/04:30pm 27.0 ENE 9 12 1009.0 - 0.0 - - 10 - - - -
23/04:00pm 27.4 NE 10 13 1008.8 - 0.0 - - 10 - - - -
23/03:30pm 26.8 ENE 10 12 1008.7 - 0.0 - - 10 - - - -
23/03:00pm 27.0 NE 11 14 1008.7 F 0.0 Fine Mostly cloudy 60 - - - -
23/02:30pm 27.7 NE 13 16 1008.8 - 0.0 - - 10 - - - -
23/02:00pm 27.9 NE 13 16 1009.1 - 0.0 - - 10 - - - -
23/01:30pm 26.9 ENE 13 16 1009.7 - 0.0 - - 10 - - - -
23/01:00pm 27.9 ENE 13 17 1010.3 - 0.0 - - 10 - - - -
23/12:30pm 27.6 NE 13 15 1010.8 - 0.0 - - 10 - - - -
23/12:00pm 27.5 ENE 10 14 1011.2 F 0.0 Fine Mostly cloudy 60 - - - -
23/11:30am 26.8 ENE 10 13 1012.2 - 0.0 - - 10 - - - -
23/11:00am 26.7 NE 8 11 1012.8 - 0.0 - - 10 - - - -
23/10:30am 26.7 SE 10 12 1013.4 - 0.0 - - 10 - - - -
23/10:00am 26.4 S 3 7 1013.6 - 0.0 - - 10 - - - -
23/09:30am 25.5 SE 4 7 1013.8 - 0.0 - - 10 - - - -
23/09:00am 24.2 S 6 8 1013.7 F 0.0 Fine Mostly clear 60 - - - -
23/08:30am 21.6 CALM 0 0 1013.9 - 0.0 - - 10 - - - -
23/08:00am 19.2 CALM 0 0 1013.9 - 0.0 - - 10 - - - -
23/07:30am 17.3 ESE 3 5 1013.5 - 0.0 - - 10 - - - -
23/07:00am 14.5 CALM 0 0 1013.3 - 0.0 - - 10 - - - -
23/06:30am 13.9 CALM 0 0 1012.8 - 0.0 - Mostly clear 10 - - - -
23/06:00am 13.8 CALM 0 0 1012.5 R 0.0 Fine Partly cloudy 50 - - - -
23/05:30am 14.2 CALM 0 0 1012.2 - 0.0 - - 10 - - - -
23/05:00am 13.6 CALM 0 0 1012.1 - 0.0 - - 10 - - - -
23/04:30am 13.9 CALM 0 0 1011.9 - 0.0 - - 10 - - - -
23/04:00am 13.7 CALM 0 0 1011.9 - 0.0 - - 10 - - - -
23/03:30am 14.4 CALM 0 0 1011.9 - 0.0 - - 10 - - - -
23/03:00am 14.8 CALM 0 0 1011.8 - 0.0 - - 10 - - - -
23/02:30am 15.6 CALM 0 0 1012.2 - 0.0 - - 10 - - - -
23/02:00am 15.4 CALM 0 0 1012.5 - 0.0 - - 10 - - - -
23/01:30am 16.0 CALM 0 0 1012.5 - 0.0 - - 10 - - - -
23/01:00am 16.1 CALM 0 0 1012.6 - 0.0 - - 10 - - - -
23/12:30am 15.5 CALM 0 0 1012.7 - 0.0 - - 10 - - - -
23/12:00am 16.9 CALM 0 0 1012.8 - 0.0 - - 10 - - - -
 
Date/Time
EST
Temp

°C
Wind Pressure Rain
since 9am
mm
Weather Cloud Vis
km
Sea
Height
m
Swell
Dir
 
Speed
knots
Gust
knots
hPa Trend Height
m
Period
s
Dir
22/11:30pm 16.7 CALM 0 0 1013.0 - 0.0 - - 10 - - - -
22/11:00pm 17.4 CALM 0 0 1013.2 - 0.0 - - 10 - - - -
22/10:30pm 20.3 SSE 6 7 1013.3 - 0.0 - - 10 - - - -
22/10:00pm 21.0 S 5 6 1013.3 - 0.0 - - 10 - - - -
22/09:30pm 21.2 SSE 6 6 1013.2 - 0.0 - - 10 - - - -
22/09:00pm 21.1 SE 6 7 1013.1 R 0.0 Fine Clear 50 - - - -
22/08:30pm 21.0 SE 5 7 1012.9 - 0.0 - - 10 - - - -
22/08:00pm 21.0 CALM 0 0 1012.6 - 0.0 - - 10 - - - -
22/07:30pm 21.7 CALM 0 0 1012.1 - 0.0 - - 10 - - - -
22/07:00pm 22.1 CALM 0 0 1011.5 - 0.0 - - 10 - - - -

Other Formats:

Comma delimited format used in spreadsheet applications
http://www.bom.gov.au/fwo/IDQ60701/IDQ60701.94294.axf

JavaScript Object Notation format (JSON) in row-major order
http://www.bom.gov.au/fwo/IDQ60701/IDQ60701.94294.json